Time;durP1;ratioP1;P1;durP2;ratioP2;P2;SDS_P1;SDS_P2;PMS_P1;PMS_P2;Temp;Humidity;BMP_temperature;BMP_pressure;BME280_temperature;BME280_humidity;BME280_pressure;Samples;Min_cycle;Max_cycle;Signal;HPM_P1;HPM_P2
2023/10/08 00:01:55;0.00;0.00;0.62;0.00;0.00;0.62;1.30;0.60;;;26.70;32.80;;;;;;2256477;61;20425;-67
2023/10/08 00:04:40;0.00;0.00;0.62;0.00;0.00;0.62;1.43;0.70;;;26.60;32.70;;;;;;2256941;61;20429;-66
2023/10/08 00:07:26;0.00;0.00;0.62;0.00;0.00;0.62;1.20;0.70;;;26.70;32.70;;;;;;2256615;61;20776;-66
2023/10/08 00:10:10;0.00;0.00;0.62;0.00;0.00;0.62;1.60;0.70;;;26.60;32.70;;;;;;2253141;61;20370;-66
2023/10/08 00:12:55;0.00;0.00;0.62;0.00;0.00;0.62;1.30;0.60;;;26.60;32.60;;;;;;2256558;61;20366;-68
2023/10/08 00:15:52;0.00;0.00;0.62;0.00;0.00;0.62;1.20;0.60;;;26.60;33.20;;;;;;2256725;61;20425;-65
2023/10/08 00:18:48;0.00;0.00;0.62;0.00;0.00;0.62;1.30;0.60;;;26.60;32.50;;;;;;2256301;61;20366;-67
2023/10/08 00:21:35;0.00;0.00;0.62;0.00;0.00;0.62;1.20;0.60;;;26.60;32.50;;;;;;2256667;61;20964;-70
2023/10/08 00:24:26;0.00;0.00;0.62;0.00;0.00;0.62;1.27;0.63;;;26.60;32.50;;;;;;2256995;61;20430;-67
2023/10/08 00:27:14;0.00;0.00;0.62;0.00;0.00;0.62;1.60;0.60;;;26.60;32.40;;;;;;2256848;61;20369;-66
2023/10/08 00:30:00;0.00;0.00;0.62;0.00;0.00;0.62;1.60;0.80;;;26.60;32.40;;;;;;2253111;61;20442;-65
2023/10/08 00:32:45;0.00;0.00;0.62;0.00;0.00;0.62;1.27;0.60;;;26.60;32.40;;;;;;2256770;61;20385;-65
2023/10/08 00:35:31;0.00;0.00;0.62;0.00;0.00;0.62;1.20;0.50;;;26.60;32.30;;;;;;2253321;61;20441;-65
2023/10/08 00:38:20;0.00;0.00;0.62;0.00;0.00;0.62;1.30;0.60;;;26.60;32.30;;;;;;2253517;61;20881;-65
2023/10/08 00:41:06;0.00;0.00;0.62;0.00;0.00;0.62;1.20;0.60;;;26.50;32.20;;;;;;2257465;61;20447;-65
2023/10/08 00:43:51;0.00;0.00;0.62;0.00;0.00;0.62;1.27;0.63;;;26.50;32.10;;;;;;2260660;61;20372;-69
2023/10/08 00:46:42;0.00;0.00;0.62;0.00;0.00;0.62;1.23;0.60;;;26.50;32.10;;;;;;2260721;61;20368;-66
2023/10/08 00:52:29;0.00;0.00;0.62;0.00;0.00;0.62;1.33;0.60;;;26.50;31.90;;;;;;2257188;61;20405;-66
2023/10/08 00:55:28;0.00;0.00;0.62;0.00;0.00;0.62;1.20;0.60;;;26.50;31.80;;;;;;2257711;61;20361;-66
2023/10/08 00:58:23;0.00;0.00;0.62;0.00;0.00;0.62;1.20;0.60;;;26.50;31.70;;;;;;2256858;61;20864;-66
2023/10/08 01:01:11;0.00;0.00;0.62;0.00;0.00;0.62;1.40;0.57;;;26.50;31.70;;;;;;2260584;61;21032;-66
2023/10/08 01:03:56;0.00;0.00;0.62;0.00;0.00;0.62;1.20;0.63;;;26.50;31.70;;;;;;2260810;61;20404;-66
2023/10/08 01:06:41;0.00;0.00;0.62;0.00;0.00;0.62;1.73;0.60;;;26.50;31.70;;;;;;2257227;61;20775;-67
2023/10/08 01:12:44;0.00;0.00;0.62;0.00;0.00;0.62;1.50;0.70;;;26.40;31.60;;;;;;2251003;61;20457;-66
2023/10/08 01:15:29;0.00;0.00;0.62;0.00;0.00;0.62;1.30;0.60;;;26.40;31.70;;;;;;2257278;61;20832;-66
2023/10/08 01:18:29;0.00;0.00;0.62;0.00;0.00;0.62;1.20;0.60;;;26.40;31.60;;;;;;2260305;61;20365;-66
2023/10/08 01:21:29;0.00;0.00;0.62;0.00;0.00;0.62;1.67;0.60;;;26.40;31.60;;;;;;2260551;61;20546;-67
2023/10/08 01:24:17;0.00;0.00;0.62;0.00;0.00;0.62;1.23;0.60;;;26.40;31.60;;;;;;2257517;61;20399;-66
2023/10/08 01:27:04;0.00;0.00;0.62;0.00;0.00;0.62;2.07;0.60;;;26.30;31.50;;;;;;2257260;61;20397;-66
2023/10/08 01:29:50;0.00;0.00;0.62;0.00;0.00;0.62;1.50;0.60;;;26.30;31.50;;;;;;2270862;58;20384;-70
2023/10/08 01:32:36;0.00;0.00;0.62;0.00;0.00;0.62;1.47;0.70;;;26.30;31.50;;;;;;2250287;61;20389;-64
2023/10/08 01:35:24;0.00;0.00;0.62;0.00;0.00;0.62;1.40;0.60;;;26.30;31.50;;;;;;2251958;61;20375;-65
2023/10/08 01:38:13;0.00;0.00;0.62;0.00;0.00;0.62;1.90;0.80;;;26.30;31.60;;;;;;2597724;45;20362;-65
2023/10/08 01:44:07;0.00;0.00;0.62;0.00;0.00;0.62;1.20;0.50;;;26.30;31.60;;;;;;2260281;61;20408;-65
2023/10/08 01:46:52;0.00;0.00;0.62;0.00;0.00;0.62;1.20;0.60;;;26.30;31.60;;;;;;2260478;61;20400;-65
2023/10/08 01:49:39;0.00;0.00;0.62;0.00;0.00;0.62;1.30;0.60;;;26.30;31.70;;;;;;2256735;61;20369;-65
2023/10/08 01:52:25;0.00;0.00;0.62;0.00;0.00;0.62;1.40;0.70;;;26.30;31.70;;;;;;2257320;61;20439;-65
2023/10/08 01:55:13;0.00;0.00;0.62;0.00;0.00;0.62;1.30;0.60;;;26.30;31.70;;;;;;2260504;61;20372;-66
2023/10/08 01:57:59;0.00;0.00;0.62;0.00;0.00;0.62;1.20;0.60;;;26.30;31.70;;;;;;2256964;61;20449;-65
2023/10/08 02:00:46;0.00;0.00;0.62;0.00;0.00;0.62;1.40;0.57;;;26.30;31.70;;;;;;2257425;61;20405;-68
2023/10/08 02:03:31;0.00;0.00;0.62;0.00;0.00;0.62;1.30;0.60;;;26.30;31.70;;;;;;2260426;61;20373;-65
2023/10/08 02:06:16;0.00;0.00;0.62;0.00;0.00;0.62;1.60;0.60;;;26.30;31.70;;;;;;2260330;61;20369;-65
2023/10/08 02:09:07;0.00;0.00;0.62;0.00;0.00;0.62;1.40;0.70;;;26.30;31.70;;;;;;2259986;61;20427;-65
2023/10/08 02:11:53;0.00;0.00;0.62;0.00;0.00;0.62;2.17;1.00;;;26.30;31.70;;;;;;2257009;61;20555;-66
2023/10/08 02:14:41;0.00;0.00;0.62;0.00;0.00;0.62;1.80;0.70;;;26.30;31.70;;;;;;2260427;61;20409;-65
2023/10/08 02:17:26;0.00;0.00;0.62;0.00;0.00;0.62;1.63;0.97;;;26.30;31.70;;;;;;2257117;61;20448;-65
2023/10/08 02:20:12;0.00;0.00;0.62;0.00;0.00;0.62;1.30;0.60;;;26.30;31.70;;;;;;2256563;61;20397;-65
2023/10/08 02:22:56;0.00;0.00;0.62;0.00;0.00;0.62;1.50;0.60;;;26.20;31.60;;;;;;2260376;61;20396;-65
2023/10/08 02:25:41;0.00;0.00;0.62;0.00;0.00;0.62;1.67;0.80;;;26.20;31.70;;;;;;2260483;61;20365;-66
2023/10/08 02:28:26;0.00;0.00;0.62;0.00;0.00;0.62;1.27;0.63;;;26.30;31.70;;;;;;2256818;61;20361;-66
2023/10/08 02:31:12;0.00;0.00;0.62;0.00;0.00;0.62;1.77;0.63;;;26.20;31.60;;;;;;2260328;61;20377;-66
2023/10/08 02:33:58;0.00;0.00;0.62;0.00;0.00;0.62;1.90;0.80;;;26.20;31.60;;;;;;2260075;61;20423;-67
2023/10/08 02:36:43;0.00;0.00;0.62;0.00;0.00;0.62;1.87;0.70;;;26.20;31.60;;;;;;2257060;61;20929;-65
2023/10/08 02:39:30;0.00;0.00;0.62;0.00;0.00;0.62;1.90;0.70;;;26.20;31.60;;;;;;2256512;61;20361;-65
2023/10/08 02:42:16;0.00;0.00;0.62;0.00;0.00;0.62;1.80;0.80;;;26.20;31.60;;;;;;2255539;61;20393;-66
2023/10/08 02:45:02;0.00;0.00;0.62;0.00;0.00;0.62;1.97;0.80;;;26.20;31.60;;;;;;2255753;61;20366;-65
2023/10/08 02:47:48;0.00;0.00;0.62;0.00;0.00;0.62;1.40;0.80;;;26.20;31.60;;;;;;2256286;61;20370;-65
2023/10/08 02:50:33;0.00;0.00;0.62;0.00;0.00;0.62;1.70;0.67;;;26.20;31.60;;;;;;2256138;61;20420;-68
2023/10/08 02:53:21;0.00;0.00;0.62;0.00;0.00;0.62;1.53;0.70;;;26.20;31.60;;;;;;2253132;61;20815;-65
2023/10/08 02:56:12;0.00;0.00;0.62;0.00;0.00;0.62;1.50;0.70;;;26.20;31.60;;;;;;2256163;61;20420;-66
2023/10/08 02:58:57;0.00;0.00;0.62;0.00;0.00;0.62;1.60;0.80;;;26.20;31.60;;;;;;2253000;61;20408;-65
2023/10/08 03:01:42;0.00;0.00;0.62;0.00;0.00;0.62;1.30;0.70;;;26.20;31.60;;;;;;2253053;61;20401;-65
2023/10/08 03:04:27;0.00;0.00;0.62;0.00;0.00;0.62;1.87;0.80;;;26.20;31.60;;;;;;2252899;61;20922;-67
2023/10/08 03:07:21;0.00;0.00;0.62;0.00;0.00;0.62;2.47;0.80;;;26.20;31.60;;;;;;2256324;61;20418;-66
2023/10/08 03:10:17;0.00;0.00;0.62;0.00;0.00;0.62;1.77;0.70;;;26.20;31.60;;;;;;2252820;61;20361;-65
2023/10/08 03:13:05;0.00;0.00;0.62;0.00;0.00;0.62;1.40;0.80;;;26.20;31.60;;;;;;2255948;61;20366;-66
2023/10/08 03:18:49;0.00;0.00;0.62;0.00;0.00;0.62;1.57;0.93;;;26.20;31.60;;;;;;2255490;61;20362;-65
2023/10/08 03:24:48;0.00;0.00;0.62;0.00;0.00;0.62;2.50;0.80;;;26.20;31.60;;;;;;2256027;61;20370;-66
2023/10/08 03:27:28;0.00;0.00;0.62;0.00;0.00;0.62;1.90;0.80;;;26.20;31.60;;;;;;2256084;61;20369;-68
2023/10/08 03:30:16;0.00;0.00;0.62;0.00;0.00;0.62;1.73;1.03;;;26.20;31.60;;;;;;2255902;61;20366;-66
2023/10/08 03:33:04;0.00;0.00;0.62;0.00;0.00;0.62;1.63;0.80;;;26.20;31.50;;;;;;2252703;61;20378;-65
2023/10/08 03:35:52;0.00;0.00;0.62;0.00;0.00;0.62;1.40;0.70;;;26.20;31.50;;;;;;2256090;61;20365;-66
2023/10/08 03:38:44;0.00;0.00;0.62;0.00;0.00;0.62;1.60;0.80;;;26.20;31.50;;;;;;2255698;61;20810;-68
2023/10/08 03:41:30;0.00;0.00;0.62;0.00;0.00;0.62;1.50;0.80;;;26.20;31.50;;;;;;2255816;61;20390;-66
2023/10/08 03:44:16;0.00;0.00;0.62;0.00;0.00;0.62;1.67;0.80;;;26.20;31.50;;;;;;2255991;61;20365;-66
2023/10/08 03:47:09;0.00;0.00;0.62;0.00;0.00;0.62;2.43;0.87;;;26.20;31.50;;;;;;2256177;61;20362;-66
2023/10/08 03:49:54;0.00;0.00;0.62;0.00;0.00;0.62;1.57;0.73;;;26.10;31.50;;;;;;2256280;61;20442;-66
2023/10/08 03:52:38;0.00;0.00;0.62;0.00;0.00;0.62;1.40;0.80;;;26.20;31.50;;;;;;2253476;61;20882;-69
2023/10/08 03:55:26;0.00;0.00;0.62;0.00;0.00;0.62;1.57;0.73;;;26.10;31.40;;;;;;2256767;61;20509;-67
2023/10/08 03:58:27;0.00;0.00;0.62;0.00;0.00;0.62;2.77;0.97;;;26.10;31.50;;;;;;2256351;61;20373;-66
2023/10/08 04:01:18;0.00;0.00;0.62;0.00;0.00;0.62;1.90;0.90;;;26.20;31.50;;;;;;2256637;61;20934;-67
2023/10/08 04:04:04;0.00;0.00;0.62;0.00;0.00;0.62;1.70;0.67;;;26.20;31.50;;;;;;2256599;61;20369;-67
2023/10/08 04:06:49;0.00;0.00;0.62;0.00;0.00;0.62;1.50;0.60;;;26.10;31.40;;;;;;2256559;61;20369;-66
2023/10/08 04:09:34;0.00;0.00;0.62;0.00;0.00;0.62;1.43;0.70;;;26.10;31.40;;;;;;2256297;61;20366;-68
2023/10/08 04:12:21;0.00;0.00;0.62;0.00;0.00;0.62;1.80;1.27;;;26.10;31.40;;;;;;2256577;61;20413;-66
2023/10/08 04:15:08;0.00;0.00;0.62;0.00;0.00;0.62;1.57;0.83;;;26.10;31.40;;;;;;2256785;61;20370;-66
2023/10/08 04:17:53;0.00;0.00;0.62;0.00;0.00;0.62;1.47;0.70;;;26.10;31.40;;;;;;2256341;61;20477;-66
2023/10/08 04:23:22;0.00;0.00;0.62;0.00;0.00;0.62;2.37;0.90;;;26.10;31.40;;;;;;2256651;61;20990;-68
2023/10/08 04:26:08;0.00;0.00;0.62;0.00;0.00;0.62;1.70;0.70;;;26.10;31.40;;;;;;2256596;61;20451;-65
2023/10/08 04:29:02;0.00;0.00;0.62;0.00;0.00;0.62;2.23;1.03;;;26.10;31.50;;;;;;2257547;61;20491;-67
2023/10/08 04:31:54;0.00;0.00;0.62;0.00;0.00;0.62;1.77;0.83;;;26.10;31.40;;;;;;2256320;61;20386;-65
2023/10/08 04:34:44;0.00;0.00;0.62;0.00;0.00;0.62;1.73;0.70;;;26.10;31.30;;;;;;2256887;61;20370;-65
2023/10/08 04:37:32;0.00;0.00;0.62;0.00;0.00;0.62;1.33;0.67;;;26.10;31.30;;;;;;2253438;61;20362;-65
2023/10/08 04:40:17;0.00;0.00;0.62;0.00;0.00;0.62;1.93;0.90;;;26.10;31.40;;;;;;2260124;61;20504;-66
2023/10/08 04:43:03;0.00;0.00;0.62;0.00;0.00;0.62;1.97;0.70;;;26.10;32.10;;;;;;2260544;61;20393;-66
2023/10/08 04:45:49;0.00;0.00;0.62;0.00;0.00;0.62;1.97;0.83;;;26.10;31.30;;;;;;2257680;61;20389;-67
2023/10/08 04:48:36;0.00;0.00;0.62;0.00;0.00;0.62;1.60;0.90;;;26.10;31.40;;;;;;2260019;61;20411;-65
2023/10/08 04:51:22;0.00;0.00;0.62;0.00;0.00;0.62;2.20;0.97;;;26.10;31.30;;;;;;2260697;61;20439;-64
2023/10/08 04:54:07;0.00;0.00;0.62;0.00;0.00;0.62;2.17;0.70;;;26.00;31.20;;;;;;2260551;61;20365;-65
2023/10/08 04:56:53;0.00;0.00;0.62;0.00;0.00;0.62;2.13;0.87;;;26.10;31.30;;;;;;2260743;61;20360;-65
2023/10/08 04:59:38;0.00;0.00;0.62;0.00;0.00;0.62;1.40;0.80;;;26.10;31.30;;;;;;2260244;61;20708;-65
2023/10/08 05:02:49;0.00;0.00;0.62;0.00;0.00;0.62;1.90;0.80;;;26.00;31.20;;;;;;2260317;61;21040;-65
2023/10/08 05:05:54;0.00;0.00;0.62;0.00;0.00;0.62;1.60;0.80;;;26.10;31.30;;;;;;2260583;61;20416;-65
2023/10/08 05:08:57;0.00;0.00;0.62;0.00;0.00;0.62;1.60;0.87;;;26.00;31.20;;;;;;2260251;61;20408;-65
2023/10/08 05:11:56;0.00;0.00;0.62;0.00;0.00;0.62;2.23;0.90;;;26.00;31.20;;;;;;2434010;40;20429;31
2023/10/08 05:14:55;0.00;0.00;0.62;0.00;0.00;0.62;1.90;0.70;;;26.00;31.20;;;;;;2258757;61;20372;-66
2023/10/08 05:23:53;0.00;0.00;0.62;0.00;0.00;0.62;1.50;0.80;;;26.00;31.20;;;;;;2264738;61;20407;-65
2023/10/08 05:26:49;0.00;0.00;0.62;0.00;0.00;0.62;2.63;0.80;;;26.00;31.20;;;;;;2264625;61;20950;-66
2023/10/08 05:29:52;0.00;0.00;0.62;0.00;0.00;0.62;2.43;0.83;;;26.00;31.20;;;;;;2261080;61;20364;-66
2023/10/08 05:36:09;0.00;0.00;0.62;0.00;0.00;0.62;2.53;1.00;;;26.00;31.20;;;;;;2240663;61;21075;-66
2023/10/08 05:39:01;0.00;0.00;0.62;0.00;0.00;0.62;2.50;0.90;;;26.00;31.20;;;;;;2244283;61;20783;-66
2023/10/08 05:41:52;0.00;0.00;0.62;0.00;0.00;0.62;1.70;0.90;;;26.00;31.20;;;;;;2247243;61;20536;-66
2023/10/08 05:44:40;0.00;0.00;0.62;0.00;0.00;0.62;1.87;1.10;;;26.00;31.20;;;;;;2247319;61;20912;-66
2023/10/08 05:50:38;0.00;0.00;0.62;0.00;0.00;0.62;2.27;0.93;;;26.00;31.10;;;;;;2259642;61;20365;-66
2023/10/08 05:53:43;0.00;0.00;0.62;0.00;0.00;0.62;2.20;1.30;;;26.00;31.10;;;;;;2260613;61;20408;-66
2023/10/08 05:56:28;0.00;0.00;0.62;0.00;0.00;0.62;1.80;1.00;;;26.00;31.10;;;;;;2260691;61;20364;-66
2023/10/08 05:59:18;0.00;0.00;0.62;0.00;0.00;0.62;2.43;1.10;;;26.00;31.10;;;;;;2259877;61;20369;-67
2023/10/08 06:02:19;0.00;0.00;0.62;0.00;0.00;0.62;2.77;1.03;;;26.00;31.10;;;;;;2260117;61;20937;-66
2023/10/08 06:05:20;0.00;0.00;0.62;0.00;0.00;0.62;2.93;1.27;;;26.00;31.10;;;;;;2260347;61;20376;-65
2023/10/08 06:08:13;0.00;0.00;0.62;0.00;0.00;0.62;1.73;1.03;;;26.00;31.10;;;;;;2260169;61;20881;-66
2023/10/08 06:11:00;0.00;0.00;0.62;0.00;0.00;0.62;1.67;0.90;;;26.00;31.10;;;;;;2260381;61;20380;-66
2023/10/08 06:13:50;0.00;0.00;0.62;0.00;0.00;0.62;1.77;0.93;;;26.00;31.10;;;;;;2260358;61;20579;-67
2023/10/08 06:16:41;0.00;0.00;0.62;0.00;0.00;0.62;2.13;1.00;;;26.00;31.10;;;;;;2260217;61;20389;-66
2023/10/08 06:19:26;0.00;0.00;0.62;0.00;0.00;0.62;2.70;1.20;;;25.90;31.00;;;;;;2260026;61;20471;-67
2023/10/08 06:22:11;0.00;0.00;0.62;0.00;0.00;0.62;2.30;1.30;;;26.00;31.70;;;;;;2260374;61;20436;-64
2023/10/08 06:25:16;0.00;0.00;0.62;0.00;0.00;0.62;1.80;0.90;;;25.90;31.00;;;;;;2260095;61;20365;-65
2023/10/08 06:28:02;0.00;0.00;0.62;0.00;0.00;0.62;2.00;1.00;;;25.90;31.70;;;;;;2259784;61;20415;-65
2023/10/08 06:30:48;0.00;0.00;0.62;0.00;0.00;0.62;2.17;0.90;;;25.90;31.00;;;;;;2260018;61;20444;-66
2023/10/08 06:33:33;0.00;0.00;0.62;0.00;0.00;0.62;1.80;0.90;;;25.90;31.00;;;;;;2260504;61;20360;-67
2023/10/08 06:36:23;0.00;0.00;0.62;0.00;0.00;0.62;2.47;1.03;;;26.00;31.20;;;;;;2259951;61;20496;-65
2023/10/08 06:39:12;0.00;0.00;0.62;0.00;0.00;0.62;1.90;0.90;;;25.90;31.00;;;;;;2261592;61;20372;-65
2023/10/08 06:41:58;0.00;0.00;0.62;0.00;0.00;0.62;1.70;0.90;;;25.90;31.00;;;;;;2263842;61;20480;-66
2023/10/08 06:44:48;0.00;0.00;0.62;0.00;0.00;0.62;2.67;1.20;;;25.90;31.00;;;;;;2263964;61;20356;-66
2023/10/08 06:47:33;0.00;0.00;0.62;0.00;0.00;0.62;2.07;1.20;;;25.90;31.00;;;;;;2264412;61;20375;-65
2023/10/08 06:50:21;0.00;0.00;0.62;0.00;0.00;0.62;2.30;1.20;;;25.90;31.00;;;;;;2264423;61;20372;-65
2023/10/08 06:53:07;0.00;0.00;0.62;0.00;0.00;0.62;2.03;0.90;;;25.90;31.00;;;;;;2264298;61;20360;-65
2023/10/08 06:55:56;0.00;0.00;0.62;0.00;0.00;0.62;1.60;0.70;;;25.90;31.00;;;;;;2264499;61;20456;-67
2023/10/08 06:58:53;0.00;0.00;0.62;0.00;0.00;0.62;2.53;1.20;;;25.90;31.00;;;;;;2263918;61;20360;-66
2023/10/08 07:01:41;0.00;0.00;0.62;0.00;0.00;0.62;2.27;1.10;;;25.90;31.00;;;;;;2263920;61;20398;-67
2023/10/08 07:04:26;0.00;0.00;0.62;0.00;0.00;0.62;1.87;0.90;;;25.90;31.00;;;;;;2264202;61;20384;-67
2023/10/08 07:07:18;0.00;0.00;0.62;0.00;0.00;0.62;1.73;1.00;;;25.90;31.00;;;;;;2264216;61;20923;-66
2023/10/08 07:10:04;0.00;0.00;0.62;0.00;0.00;0.62;1.80;1.17;;;25.90;31.00;;;;;;2264082;61;20458;-66
2023/10/08 07:12:52;0.00;0.00;0.62;0.00;0.00;0.62;2.90;1.23;;;25.90;31.10;;;;;;2264281;61;20423;-66
2023/10/08 07:15:40;0.00;0.00;0.62;0.00;0.00;0.62;2.03;0.90;;;25.90;31.10;;;;;;2264150;61;20820;-66
2023/10/08 07:18:26;0.00;0.00;0.62;0.00;0.00;0.62;1.87;1.00;;;25.90;31.00;;;;;;2263839;61;20368;-66
2023/10/08 07:21:13;0.00;0.00;0.62;0.00;0.00;0.62;2.23;1.10;;;25.90;31.10;;;;;;2263804;61;20396;-66
2023/10/08 07:24:01;0.00;0.00;0.62;0.00;0.00;0.62;2.60;1.40;;;25.90;31.10;;;;;;2264560;61;20452;-67
2023/10/08 07:26:46;0.00;0.00;0.62;0.00;0.00;0.62;1.97;1.07;;;25.90;31.90;;;;;;2264946;61;20875;-66
2023/10/08 07:29:32;0.00;0.00;0.62;0.00;0.00;0.62;2.53;1.10;;;25.90;31.10;;;;;;2264810;61;20391;-66
2023/10/08 07:32:18;0.00;0.00;0.62;0.00;0.00;0.62;2.87;1.47;;;25.90;31.20;;;;;;2264507;61;20500;-67
2023/10/08 07:35:29;0.00;0.00;0.62;0.00;0.00;0.62;2.20;1.20;;;25.90;31.90;;;;;;2264466;61;20360;-66
2023/10/08 07:38:10;0.00;0.00;0.62;0.00;0.00;0.62;2.33;1.30;;;25.80;31.10;;;;;;2264545;61;20364;-69
2023/10/08 07:40:56;0.00;0.00;0.62;0.00;0.00;0.62;2.73;1.57;;;25.80;31.10;;;;;;2264219;61;20427;-66
2023/10/08 07:43:46;0.00;0.00;0.62;0.00;0.00;0.62;2.90;1.90;;;25.80;31.80;;;;;;2265036;61;20939;-66
2023/10/08 07:46:32;0.00;0.00;0.62;0.00;0.00;0.62;2.63;1.70;;;25.80;31.20;;;;;;2264753;61;20387;-66
2023/10/08 07:49:17;0.00;0.00;0.62;0.00;0.00;0.62;2.90;1.33;;;25.80;31.20;;;;;;2264490;61;20419;-66
2023/10/08 07:52:04;0.00;0.00;0.62;0.00;0.00;0.62;2.90;1.77;;;25.80;31.20;;;;;;2264761;61;20917;-66
2023/10/08 07:54:49;0.00;0.00;0.62;0.00;0.00;0.62;2.60;1.50;;;25.80;31.30;;;;;;2264974;61;20493;-65
2023/10/08 07:57:33;0.00;0.00;0.62;0.00;0.00;0.62;2.07;1.37;;;25.80;31.20;;;;;;2264786;61;20419;-65
2023/10/08 08:00:22;0.00;0.00;0.62;0.00;0.00;0.62;2.40;1.50;;;25.80;31.30;;;;;;2264288;61;20356;-66
2023/10/08 08:03:07;0.00;0.00;0.62;0.00;0.00;0.62;2.87;1.50;;;25.80;31.30;;;;;;2265026;61;20751;-65
2023/10/08 08:05:52;0.00;0.00;0.62;0.00;0.00;0.62;2.80;1.60;;;25.80;31.30;;;;;;2264933;61;20384;-65
2023/10/08 08:08:39;0.00;0.00;0.62;0.00;0.00;0.62;3.57;1.57;;;25.80;31.30;;;;;;2264491;61;20364;-67
2023/10/08 08:11:26;0.00;0.00;0.62;0.00;0.00;0.62;3.00;1.50;;;25.80;31.30;;;;;;2264762;61;20933;-66
2023/10/08 08:14:10;0.00;0.00;0.62;0.00;0.00;0.62;2.30;1.40;;;25.80;31.30;;;;;;2264449;61;20944;-66
2023/10/08 08:16:55;0.00;0.00;0.62;0.00;0.00;0.62;3.30;1.67;;;25.80;31.30;;;;;;2264883;61;20368;-65
2023/10/08 08:19:39;0.00;0.00;0.62;0.00;0.00;0.62;2.03;1.40;;;25.80;31.30;;;;;;2264738;61;20407;-67
2023/10/08 08:22:30;0.00;0.00;0.62;0.00;0.00;0.62;3.23;1.63;;;25.80;31.30;;;;;;2264618;61;20435;-66
2023/10/08 08:25:26;0.00;0.00;0.62;0.00;0.00;0.62;2.23;1.30;;;25.80;31.30;;;;;;2264730;61;20460;-65
2023/10/08 08:28:17;0.00;0.00;0.62;0.00;0.00;0.62;2.87;1.23;;;25.80;31.30;;;;;;2261219;61;20365;-65
2023/10/08 08:31:04;0.00;0.00;0.62;0.00;0.00;0.62;2.00;1.30;;;25.80;31.30;;;;;;2264656;61;20408;-67
2023/10/08 08:34:02;0.00;0.00;0.62;0.00;0.00;0.62;2.30;1.40;;;25.80;31.30;;;;;;2264751;61;20372;-70
2023/10/08 08:36:48;0.00;0.00;0.62;0.00;0.00;0.62;2.60;1.50;;;25.80;31.30;;;;;;2264487;61;20360;-66
2023/10/08 08:39:35;0.00;0.00;0.62;0.00;0.00;0.62;3.80;1.83;;;25.90;31.40;;;;;;2264336;61;20375;-67
2023/10/08 08:42:26;0.00;0.00;0.62;0.00;0.00;0.62;2.73;2.07;;;25.90;31.40;;;;;;2264701;61;20438;-66
2023/10/08 08:45:13;0.00;0.00;0.62;0.00;0.00;0.62;2.90;1.73;;;25.80;31.30;;;;;;2264619;61;20491;-66
2023/10/08 08:47:57;0.00;0.00;0.62;0.00;0.00;0.62;2.80;2.00;;;25.90;31.40;;;;;;2264296;61;20845;-66
2023/10/08 08:50:43;0.00;0.00;0.62;0.00;0.00;0.62;2.67;2.20;;;25.80;31.30;;;;;;2264809;61;20777;-66
2023/10/08 08:53:28;0.00;0.00;0.62;0.00;0.00;0.62;2.97;2.40;;;25.90;31.40;;;;;;2264651;61;20392;-67
2023/10/08 08:56:15;0.00;0.00;0.62;0.00;0.00;0.62;3.10;2.00;;;25.90;31.40;;;;;;2264527;61;20438;-67
2023/10/08 08:59:01;0.00;0.00;0.62;0.00;0.00;0.62;4.40;2.10;;;25.90;31.40;;;;;;2264040;61;20410;-65
2023/10/08 09:01:47;0.00;0.00;0.62;0.00;0.00;0.62;2.83;2.10;;;25.90;31.40;;;;;;2264690;61;20380;-66
2023/10/08 09:04:32;0.00;0.00;0.62;0.00;0.00;0.62;2.40;1.97;;;25.90;31.40;;;;;;2264768;61;20775;-65
2023/10/08 09:07:21;0.00;0.00;0.62;0.00;0.00;0.62;2.80;2.27;;;25.90;31.30;;;;;;2264420;61;20364;-65
2023/10/08 09:10:12;0.00;0.00;0.62;0.00;0.00;0.62;5.50;2.57;;;25.90;31.40;;;;;;2263796;61;20915;-65
2023/10/08 09:12:59;0.00;0.00;0.62;0.00;0.00;0.62;3.30;2.67;;;25.90;31.30;;;;;;2264166;61;20831;-68
2023/10/08 09:15:46;0.00;0.00;0.62;0.00;0.00;0.62;2.33;1.90;;;25.90;31.30;;;;;;2264255;61;20372;-66
2023/10/08 09:18:32;0.00;0.00;0.62;0.00;0.00;0.62;3.17;1.87;;;25.90;31.30;;;;;;2264223;61;20954;-66
2023/10/08 09:21:19;0.00;0.00;0.62;0.00;0.00;0.62;4.23;2.30;;;25.90;31.20;;;;;;2264284;61;20383;-66
2023/10/08 09:24:08;0.00;0.00;0.62;0.00;0.00;0.62;2.70;1.87;;;26.00;31.30;;;;;;2264487;61;20477;-67
2023/10/08 09:26:55;0.00;0.00;0.62;0.00;0.00;0.62;2.47;2.10;;;25.90;31.20;;;;;;2264463;61;20419;-66
2023/10/08 09:29:40;0.00;0.00;0.62;0.00;0.00;0.62;3.70;2.40;;;26.00;31.30;;;;;;2263984;61;20935;-65
2023/10/08 09:32:30;0.00;0.00;0.62;0.00;0.00;0.62;4.67;2.60;;;26.00;31.30;;;;;;2264715;61;20380;-67
2023/10/08 09:35:16;0.00;0.00;0.62;0.00;0.00;0.62;2.40;1.77;;;26.00;31.30;;;;;;2264659;61;20492;-66
2023/10/08 09:38:03;0.00;0.00;0.62;0.00;0.00;0.62;3.30;2.67;;;26.00;31.20;;;;;;2264138;61;20412;-67
2023/10/08 09:40:48;0.00;0.00;0.62;0.00;0.00;0.62;3.97;2.20;;;26.00;31.20;;;;;;2685398;45;20921;-67
2023/10/08 09:43:34;0.00;0.00;0.62;0.00;0.00;0.62;3.20;1.87;;;26.00;31.20;;;;;;2260181;61;20417;-66
2023/10/08 09:46:23;0.00;0.00;0.62;0.00;0.00;0.62;4.33;2.47;;;26.00;31.20;;;;;;2260269;61;20443;-66
2023/10/08 09:49:12;0.00;0.00;0.62;0.00;0.00;0.62;3.67;2.40;;;26.00;31.10;;;;;;2259982;61;20392;-67
2023/10/08 09:51:58;0.00;0.00;0.62;0.00;0.00;0.62;3.30;2.30;;;26.00;31.20;;;;;;2257138;61;20392;-66
2023/10/08 09:54:48;0.00;0.00;0.62;0.00;0.00;0.62;3.03;2.20;;;26.00;31.20;;;;;;2260441;61;20404;-67
2023/10/08 09:57:33;0.00;0.00;0.62;0.00;0.00;0.62;5.83;3.13;;;26.00;31.20;;;;;;2260463;61;20364;-66
2023/10/08 10:00:29;0.00;0.00;0.62;0.00;0.00;0.62;3.20;2.20;;;26.00;31.10;;;;;;2260260;61;20404;-67
2023/10/08 10:03:14;0.00;0.00;0.62;0.00;0.00;0.62;4.40;2.50;;;26.10;31.20;;;;;;2257074;61;20950;-67
2023/10/08 10:06:00;0.00;0.00;0.62;0.00;0.00;0.62;3.60;2.30;;;26.00;31.00;;;;;;2260260;61;20360;-68
2023/10/08 10:08:47;0.00;0.00;0.62;0.00;0.00;0.62;3.17;2.20;;;26.10;31.10;;;;;;2256860;61;20997;-66
2023/10/08 10:11:31;0.00;0.00;0.62;0.00;0.00;0.62;4.07;2.60;;;26.10;31.00;;;;;;2260032;61;20404;-67
2023/10/08 10:14:17;0.00;0.00;0.62;0.00;0.00;0.62;3.13;2.03;;;26.10;31.00;;;;;;2260047;61;20791;-66
2023/10/08 10:17:16;0.00;0.00;0.62;0.00;0.00;0.62;3.03;2.00;;;26.10;31.00;;;;;;2260127;61;20365;-66
2023/10/08 10:20:01;0.00;0.00;0.62;0.00;0.00;0.62;2.20;1.80;;;26.10;31.00;;;;;;2259841;61;20789;-66
2023/10/08 10:22:47;0.00;0.00;0.62;0.00;0.00;0.62;4.83;2.20;;;26.10;31.00;;;;;;2260009;61;20396;-67
2023/10/08 10:25:37;0.00;0.00;0.62;0.00;0.00;0.62;2.90;1.97;;;26.10;30.90;;;;;;2260001;61;20920;-66
2023/10/08 10:28:22;0.00;0.00;0.62;0.00;0.00;0.62;3.63;1.90;;;26.10;30.80;;;;;;2259567;61;20921;-67
2023/10/08 10:31:18;0.00;0.00;0.62;0.00;0.00;0.62;3.17;1.63;;;26.20;30.90;;;;;;2257049;61;20424;-65
2023/10/08 10:34:08;0.00;0.00;0.62;0.00;0.00;0.62;3.10;1.80;;;26.20;30.80;;;;;;2260208;61;20385;-67
2023/10/08 10:37:08;0.00;0.00;0.62;0.00;0.00;0.62;2.57;1.57;;;26.20;30.80;;;;;;2257043;61;20399;-68
2023/10/08 10:39:59;0.00;0.00;0.62;0.00;0.00;0.62;3.97;1.80;;;26.20;30.90;;;;;;2263065;61;20865;-66
2023/10/08 10:42:53;0.00;0.00;0.62;0.00;0.00;0.62;3.00;1.83;;;26.20;30.80;;;;;;2260906;61;20515;-66
2023/10/08 10:45:42;0.00;0.00;0.62;0.00;0.00;0.62;2.53;1.50;;;26.20;30.90;;;;;;2263923;61;20444;-67
2023/10/08 10:48:34;0.00;0.00;0.62;0.00;0.00;0.62;3.93;2.07;;;26.20;30.80;;;;;;2263934;61;20380;-66
2023/10/08 10:51:20;0.00;0.00;0.62;0.00;0.00;0.62;3.37;1.87;;;26.20;31.50;;;;;;2264111;61;20404;-66
2023/10/08 10:54:08;0.00;0.00;0.62;0.00;0.00;0.62;4.50;1.97;;;26.30;30.90;;;;;;2264348;61;20448;-66
2023/10/08 10:57:03;0.00;0.00;0.62;0.00;0.00;0.62;2.90;1.50;;;26.30;30.90;;;;;;2264211;61;20634;-66
2023/10/08 10:59:53;0.00;0.00;0.62;0.00;0.00;0.62;3.00;2.03;;;26.30;30.90;;;;;;2264867;61;20411;-66
2023/10/08 11:02:39;0.00;0.00;0.62;0.00;0.00;0.62;3.30;1.50;;;26.30;30.90;;;;;;2264581;61;20388;-69
2023/10/08 11:05:28;0.00;0.00;0.62;0.00;0.00;0.62;3.70;1.83;;;26.30;30.90;;;;;;2264348;61;20399;-66
2023/10/08 11:08:14;0.00;0.00;0.62;0.00;0.00;0.62;2.67;1.60;;;26.30;30.90;;;;;;2264712;61;20403;-70
2023/10/08 11:11:04;0.00;0.00;0.62;0.00;0.00;0.62;5.33;1.60;;;26.30;30.90;;;;;;2265159;61;20790;-67
2023/10/08 11:13:54;0.00;0.00;0.62;0.00;0.00;0.62;3.07;1.67;;;26.40;31.60;;;;;;2264771;61;20403;-67
2023/10/08 11:16:39;0.00;0.00;0.62;0.00;0.00;0.62;2.40;1.50;;;26.40;30.70;;;;;;2264960;61;20394;-67
2023/10/08 11:19:27;0.00;0.00;0.62;0.00;0.00;0.62;3.43;1.80;;;26.40;30.50;;;;;;2264080;61;20367;-68
2023/10/08 11:22:16;0.00;0.00;0.62;0.00;0.00;0.62;3.03;1.33;;;26.40;30.30;;;;;;2264854;61;20383;-66
2023/10/08 11:25:05;0.00;0.00;0.62;0.00;0.00;0.62;4.80;1.70;;;26.40;30.20;;;;;;2264947;61;20388;-71
2023/10/08 11:27:58;0.00;0.00;0.62;0.00;0.00;0.62;3.00;1.63;;;26.40;30.10;;;;;;2264727;61;20823;-66
2023/10/08 11:30:46;0.00;0.00;0.62;0.00;0.00;0.62;3.13;1.53;;;26.50;30.00;;;;;;2264711;61;20390;-67
2023/10/08 11:33:33;0.00;0.00;0.62;0.00;0.00;0.62;2.60;1.43;;;26.50;30.00;;;;;;2264996;61;20368;-66
2023/10/08 11:36:27;0.00;0.00;0.62;0.00;0.00;0.62;3.83;1.70;;;26.50;30.60;;;;;;2264677;61;20407;-66